CheckWX is a tool to help pilots better visualize weather data.  It is not intended as a substitute for an official pre-flight weather briefing.

12:24:08 UTC

KHIF TAF
Hill AFB Airport
Ogden, Utah, USA
TAF KHIF 262102Z 2621/2803 16015G25KT 9999 FEW170 SCT200 520009 QNH2990INS BECMG 2701/2702 16012G18KT 9999 FEW200 QNH2985INS BECMG 2703/2704 15012KT 9999 SKC QNH2988INS BECMG 2716/2717 23015G25KT 9999 SCT150 520009 QNH2996INS TEMPO 2718/2722 23020G30KT TX30/2721Z TN16/2712Z LAST NO AMDS AFT 2622 NEXT 2713

Jun-26@
21:00 UTC

Jun-26 @ 21:00 UTC

Jun-27@
01:00 UTC

Jun-27 @ 01:00 UTC

TAF KHIF 262102Z 2621/2803 16015G25KT 9999 FEW170 SCT200 520009 QNH2990INS

Expired

Wind
  • 160° at 15 KTS
  • {Gusting to 25 KTS
Cloud Levels
  • Few at 17,000' AGL
  • Scattered at 20,000' AGL
Turbulence
< Occasional moderate clear air turbulence expected at the surface extending to 9,000' AGL

Jun-27@
01:00 UTC

Jun-27 @ 01:00 UTC

Jun-27@
03:00 UTC

Jun-27 @ 03:00 UTC

BECMG 2701/2702 16012G18KT 9999 FEW200 QNH2985INS

Expired

Wind
  • 160° at 12 KTS
  • {Gusting to 18 KTS
Cloud Levels
  • Few at 20,000' AGL

Jun-27@
03:00 UTC

Jun-27 @ 03:00 UTC

Jun-27@
16:00 UTC

Jun-27 @ 16:00 UTC

BECMG 2703/2704 15012KT 9999 SKC QNH2988INS

Becoming

Becoming Conditions expected by Thu, Jun 27, 2019 @ 04:00 UTC

Wind
  • 150° at 12 KTS
Cloud Levels
  • Clear skies

Jun-27@
16:00 UTC

Jun-27 @ 16:00 UTC

Jun-28@
03:00 UTC

Jun-28 @ 03:00 UTC

BECMG 2716/2717 23015G25KT 9999 SCT150 520009 QNH2996INS

Becoming

Becoming Conditions expected by Thu, Jun 27, 2019 @ 17:00 UTC

Wind
  • 230° at 15 KTS
  • {Gusting to 25 KTS
Cloud Levels
  • Scattered at 15,000' AGL
Turbulence
< Occasional moderate clear air turbulence expected at the surface extending to 9,000' AGL

Jun-27@
18:00 UTC

Jun-27 @ 18:00 UTC

Jun-27@
22:00 UTC

Jun-27 @ 22:00 UTC

TEMPO 2718/2722 23020G30KT TX30/2721Z TN16/2712Z LAST NO AMDS AFT 2622 NEXT 2713

Temporary

Temporary Changes expected for less than half the time period

Wind
  • 230° at 20 KTS
  • {Gusting to 30 KTS